createdAt,value
2019-03-22T00:00:32.315Z,6.20
2019-03-22T00:03:00.935Z,6.10
2019-03-22T00:05:30.251Z,5.90
2019-03-22T00:07:58.910Z,5.90
2019-03-22T00:10:27.587Z,5.70
2019-03-22T00:12:56.235Z,5.70
2019-03-22T00:15:24.783Z,5.70
2019-03-22T00:17:53.346Z,5.60
2019-03-22T00:20:21.895Z,5.60
2019-03-22T00:22:50.473Z,5.60
2019-03-22T00:25:19.024Z,5.60
2019-03-22T00:27:47.603Z,5.60
2019-03-22T00:30:16.151Z,5.70
2019-03-22T00:32:44.700Z,5.70
2019-03-22T00:35:13.342Z,5.80
2019-03-22T00:37:41.884Z,5.80
2019-03-22T00:40:10.992Z,5.90
2019-03-22T00:42:39.540Z,5.90
2019-03-22T00:45:09.956Z,6.00
2019-03-22T00:47:38.628Z,6.00
2019-03-22T00:50:09.655Z,5.90
2019-03-22T00:52:38.222Z,6.00
2019-03-22T00:55:07.798Z,6.00
2019-03-22T00:57:36.379Z,6.10
2019-03-22T01:00:11.238Z,6.20
2019-03-22T01:02:39.956Z,6.20
2019-03-22T01:05:09.251Z,6.10
2019-03-22T01:07:37.987Z,5.80
2019-03-22T01:10:12.442Z,5.40
2019-03-22T01:12:40.993Z,5.40
2019-03-22T01:15:14.140Z,5.30
2019-03-22T01:17:43.080Z,5.30
2019-03-22T01:20:12.660Z,5.40
2019-03-22T01:22:41.620Z,5.50
2019-03-22T01:25:11.732Z,5.60
2019-03-22T01:27:41.382Z,5.70
2019-03-22T01:30:15.296Z,5.80
2019-03-22T01:32:44.237Z,5.80
2019-03-22T01:35:13.239Z,5.60
2019-03-22T01:37:41.795Z,5.30
2019-03-22T01:40:11.999Z,5.40
2019-03-22T01:42:40.549Z,5.20
2019-03-22T01:45:11.362Z,5.20
2019-03-22T01:47:39.976Z,5.20
2019-03-22T01:50:11.659Z,5.00
2019-03-22T01:52:40.281Z,5.00
2019-03-22T01:55:09.695Z,5.00
2019-03-22T01:57:38.479Z,5.00
2019-03-22T02:00:09.957Z,5.20
2019-03-22T02:02:38.641Z,5.20
2019-03-22T02:05:07.726Z,5.30
2019-03-22T02:07:36.307Z,5.20
2019-03-22T02:10:10.638Z,5.20
2019-03-22T02:12:39.535Z,5.00
2019-03-22T02:15:13.000Z,5.00
2019-03-22T02:17:41.751Z,4.60
2019-03-22T02:20:12.136Z,4.70
2019-03-22T02:22:40.867Z,4.60
2019-03-22T02:25:10.052Z,4.50
2019-03-22T02:27:39.379Z,4.50
2019-03-22T02:30:10.964Z,4.40
2019-03-22T02:32:39.531Z,4.30
2019-03-22T02:35:08.514Z,4.20
2019-03-22T02:37:37.094Z,4.20
2019-03-22T02:40:12.689Z,4.20
2019-03-22T02:42:41.255Z,4.30
2019-03-22T02:45:12.207Z,4.30
2019-03-22T02:47:40.781Z,4.40
2019-03-22T02:50:18.754Z,4.50
2019-03-22T02:52:44.383Z,4.50
2019-03-22T02:55:14.298Z,4.60
2019-03-22T02:57:42.832Z,4.50
2019-03-22T03:00:16.589Z,4.50
2019-03-22T03:02:45.383Z,4.40
2019-03-22T03:05:14.682Z,4.10
2019-03-22T03:07:43.469Z,3.70
2019-03-22T03:10:16.121Z,3.70
2019-03-22T03:12:45.530Z,3.80
2019-03-22T03:15:15.893Z,3.90
2019-03-22T03:17:44.515Z,3.80
2019-03-22T03:20:15.725Z,3.70
2019-03-22T03:22:44.332Z,3.60
2019-03-22T03:25:13.235Z,3.50
2019-03-22T03:27:41.790Z,3.40
2019-03-22T03:30:20.094Z,3.40
2019-03-22T03:32:48.840Z,3.40
2019-03-22T03:35:17.934Z,3.50
2019-03-22T03:37:46.447Z,3.50
2019-03-22T03:40:15.559Z,3.50
2019-03-22T03:42:44.190Z,3.50
2019-03-22T03:45:31.032Z,3.40
2019-03-22T03:48:01.017Z,3.30
2019-03-22T03:50:29.664Z,3.30
2019-03-22T03:52:58.213Z,3.30
2019-03-22T03:55:27.699Z,3.20
2019-03-22T03:57:56.265Z,3.10
2019-03-22T04:00:24.998Z,3.10
2019-03-22T04:02:53.660Z,3.10
2019-03-22T04:05:22.176Z,3.20
2019-03-22T04:07:51.289Z,3.10
2019-03-22T04:10:19.832Z,3.20
2019-03-22T04:12:48.643Z,3.20
2019-03-22T04:15:17.190Z,3.30
2019-03-22T04:17:45.770Z,3.30
2019-03-22T04:20:14.309Z,3.40
2019-03-22T04:22:42.876Z,3.40
2019-03-22T04:25:11.439Z,3.50
2019-03-22T04:27:40.101Z,3.60
2019-03-22T04:30:09.119Z,3.60
2019-03-22T04:32:37.655Z,3.60
2019-03-22T04:35:10.199Z,3.50
2019-03-22T04:37:38.856Z,3.50
2019-03-22T04:40:22.374Z,3.50
2019-03-22T04:42:50.991Z,3.50
2019-03-22T04:45:19.815Z,3.40
2019-03-22T04:47:51.465Z,3.40
2019-03-22T04:50:21.648Z,3.50
2019-03-22T04:52:51.212Z,3.60
2019-03-22T04:55:20.894Z,3.70
2019-03-22T04:57:50.144Z,3.80
2019-03-22T05:00:19.394Z,3.80
2019-03-22T05:02:48.688Z,3.80
2019-03-22T05:05:19.610Z,3.60
2019-03-22T05:07:49.001Z,3.60
2019-03-22T05:10:18.315Z,3.60
2019-03-22T05:12:47.701Z,3.70
2019-03-22T05:15:19.185Z,3.70
2019-03-22T05:17:48.335Z,3.70
2019-03-22T05:20:18.948Z,3.60
2019-03-22T05:22:48.035Z,3.60
2019-03-22T05:25:18.918Z,3.50
2019-03-22T05:27:49.517Z,3.50
2019-03-22T05:30:44.127Z,3.60
2019-03-22T05:33:12.675Z,3.40
2019-03-22T05:35:41.253Z,3.20
2019-03-22T05:38:09.901Z,3.10
2019-03-22T05:40:38.467Z,2.90
2019-03-22T05:43:07.015Z,2.80
2019-03-22T05:45:35.598Z,2.80
2019-03-22T05:48:04.154Z,2.70
2019-03-22T05:50:32.708Z,2.60
2019-03-22T05:53:01.338Z,2.70
2019-03-22T05:55:29.892Z,2.80
2019-03-22T05:57:58.450Z,2.90
2019-03-22T06:00:27.339Z,3.10
2019-03-22T06:02:55.926Z,3.10
2019-03-22T06:05:24.471Z,3.10
2019-03-22T06:07:52.959Z,3.20
2019-03-22T06:10:21.503Z,3.20
2019-03-22T06:12:50.072Z,3.30
2019-03-22T06:15:18.620Z,3.70
2019-03-22T06:17:51.663Z,4.10
2019-03-22T06:20:17.412Z,4.60
2019-03-22T06:22:45.951Z,5.20
2019-03-22T06:25:14.643Z,5.90
2019-03-22T06:27:43.116Z,6.40
2019-03-22T06:30:11.916Z,6.90
2019-03-22T06:32:40.463Z,7.50
2019-03-22T06:35:09.107Z,8.20
2019-03-22T06:37:37.647Z,8.90
2019-03-22T06:40:06.896Z,9.50
2019-03-22T06:42:35.453Z,10.50
2019-03-22T06:45:05.477Z,10.90
2019-03-22T06:47:34.130Z,12.00
2019-03-22T06:50:02.687Z,12.90
2019-03-22T06:52:31.611Z,13.50
2019-03-22T06:55:00.578Z,14.30
2019-03-22T06:57:29.242Z,15.40
2019-03-22T07:00:06.468Z,16.00
2019-03-22T07:02:28.051Z,16.60
2019-03-22T07:04:56.655Z,17.10
2019-03-22T07:07:25.243Z,17.50
2019-03-22T07:09:53.796Z,18.70
2019-03-22T07:12:22.736Z,19.70
2019-03-22T07:14:51.287Z,20.60
2019-03-22T07:17:19.959Z,21.40
2019-03-22T07:19:48.518Z,22.20
2019-03-22T07:22:17.076Z,22.20
2019-03-22T07:24:45.650Z,23.30
2019-03-22T07:27:14.309Z,24.20
2019-03-22T07:29:42.883Z,25.20
2019-03-22T07:32:11.435Z,25.60
2019-03-22T07:34:40.010Z,26.10
2019-03-22T07:37:08.575Z,26.20
2019-03-22T07:39:37.259Z,25.20
2019-03-22T07:42:05.904Z,24.10
2019-03-22T07:44:34.491Z,21.80
2019-03-22T07:47:03.055Z,22.20
2019-03-22T07:49:31.622Z,23.00
2019-03-22T07:52:00.227Z,23.70
2019-03-22T07:54:28.880Z,23.80
2019-03-22T07:56:57.408Z,24.90
2019-03-22T07:59:25.976Z,25.20
2019-03-22T08:01:54.566Z,25.50
2019-03-22T08:04:23.118Z,26.10
2019-03-22T08:06:51.694Z,25.80
2019-03-22T08:09:20.263Z,25.70
2019-03-22T08:11:48.852Z,25.00
2019-03-22T08:14:17.419Z,26.20
2019-03-22T08:16:45.975Z,25.20
2019-03-22T08:19:14.757Z,26.90
2019-03-22T08:21:43.352Z,27.00
2019-03-22T08:24:11.937Z,27.40
2019-03-22T08:26:40.464Z,28.80
2019-03-22T08:29:09.038Z,29.70
2019-03-22T08:31:37.624Z,30.70
2019-03-22T08:34:06.191Z,31.30
2019-03-22T08:36:34.771Z,29.10
2019-03-22T08:39:03.399Z,27.40
2019-03-22T08:41:31.957Z,26.40
2019-03-22T08:44:02.856Z,28.00
2019-03-22T08:46:31.057Z,28.60
2019-03-22T08:48:59.636Z,29.20
2019-03-22T08:51:29.833Z,30.60
2019-03-22T08:53:58.684Z,30.80
2019-03-22T08:56:27.264Z,31.50
2019-03-22T08:58:55.811Z,31.30
2019-03-22T09:01:24.386Z,32.30
2019-03-22T09:03:52.959Z,32.60
2019-03-22T09:06:21.560Z,33.40
2019-03-22T09:08:50.119Z,33.10
2019-03-22T09:11:18.727Z,34.30
2019-03-22T09:13:47.277Z,35.30
2019-03-22T09:16:15.845Z,36.50
2019-03-22T09:18:44.783Z,36.70
2019-03-22T09:21:13.307Z,36.90
2019-03-22T09:23:41.994Z,36.40
2019-03-22T09:26:10.557Z,37.10
2019-03-22T09:28:39.247Z,36.70
2019-03-22T09:31:11.473Z,37.30
2019-03-22T09:33:38.033Z,37.50
2019-03-22T09:36:06.703Z,36.30
2019-03-22T09:38:35.307Z,35.60
2019-03-22T09:41:03.909Z,36.90
2019-03-22T09:43:32.440Z,36.40
2019-03-22T09:46:01.363Z,37.90
2019-03-22T09:48:30.122Z,37.70
2019-03-22T09:50:58.993Z,38.90
2019-03-22T09:53:30.379Z,39.20
2019-03-22T09:55:57.790Z,37.40
2019-03-22T09:58:26.323Z,38.40
2019-03-22T10:00:54.959Z,38.90
2019-03-22T10:03:23.555Z,38.60
2019-03-22T10:05:52.163Z,38.80
2019-03-22T10:08:20.748Z,38.20
2019-03-22T10:10:49.268Z,39.10
2019-03-22T10:13:17.866Z,39.90
2019-03-22T10:15:46.402Z,38.90
2019-03-22T10:18:14.958Z,38.80
2019-03-22T10:20:43.615Z,38.80
2019-03-22T10:23:12.133Z,38.30
2019-03-22T10:25:40.833Z,37.90
2019-03-22T10:28:09.379Z,37.20
2019-03-22T10:30:37.919Z,36.60
2019-03-22T10:33:06.560Z,36.50
2019-03-22T10:35:35.080Z,37.00
2019-03-22T10:38:06.311Z,37.10
2019-03-22T10:40:33.977Z,37.80
2019-03-22T10:43:02.619Z,38.20
2019-03-22T10:45:31.183Z,38.00
2019-03-22T10:47:59.800Z,38.40
2019-03-22T10:50:28.398Z,38.30
2019-03-22T10:52:57.051Z,38.80
2019-03-22T10:55:30.425Z,37.80
2019-03-22T10:57:56.064Z,37.00
2019-03-22T11:00:24.647Z,36.30
2019-03-22T11:02:53.207Z,35.50
2019-03-22T11:05:21.875Z,34.80
2019-03-22T11:07:50.455Z,35.00
2019-03-22T11:10:19.419Z,33.60
2019-03-22T11:12:47.975Z,32.60
2019-03-22T11:15:17.279Z,31.30
2019-03-22T11:17:48.151Z,29.10
2019-03-22T11:20:17.451Z,27.90
2019-03-22T11:22:46.055Z,27.20
2019-03-22T11:25:14.875Z,26.20
2019-03-22T11:27:43.440Z,26.20
2019-03-22T11:30:14.851Z,25.90
2019-03-22T11:32:43.487Z,24.90
2019-03-22T11:35:13.110Z,25.00
2019-03-22T11:37:41.822Z,24.90
2019-03-22T11:40:13.506Z,24.80
2019-03-22T11:42:42.119Z,24.80
2019-03-22T11:45:13.687Z,24.60
2019-03-22T11:47:42.418Z,24.20
2019-03-22T11:50:12.498Z,24.00
2019-03-22T11:52:41.081Z,23.90
2019-03-22T11:55:12.285Z,23.40
2019-03-22T11:57:41.084Z,22.80
2019-03-22T12:00:22.121Z,22.60
2019-03-22T12:02:50.735Z,22.40
2019-03-22T12:05:20.027Z,22.00
2019-03-22T12:07:48.677Z,21.60
2019-03-22T12:10:19.280Z,21.50
2019-03-22T12:12:48.244Z,21.20
2019-03-22T12:15:21.455Z,20.90
2019-03-22T12:17:50.289Z,20.70
2019-03-22T12:20:21.356Z,20.60
2019-03-22T12:22:50.105Z,20.70
2019-03-22T12:25:21.334Z,20.70
2019-03-22T12:27:50.387Z,20.40
2019-03-22T12:30:19.507Z,20.30
2019-03-22T12:32:48.555Z,20.20
2019-03-22T12:35:18.095Z,19.90
2019-03-22T12:37:46.729Z,19.90
2019-03-22T12:40:20.985Z,19.50
2019-03-22T12:42:50.391Z,19.40
2019-03-22T12:45:22.099Z,19.60
2019-03-22T12:47:50.651Z,19.70
2019-03-22T12:50:19.690Z,19.80
2019-03-22T12:52:48.360Z,19.80
2019-03-22T12:55:17.065Z,19.60
2019-03-22T12:57:45.644Z,19.60
2019-03-22T13:00:19.812Z,19.60
2019-03-22T13:02:48.388Z,19.70
2019-03-22T13:05:17.501Z,19.60
2019-03-22T13:07:46.153Z,19.40
2019-03-22T13:10:17.952Z,19.20
2019-03-22T13:12:46.535Z,19.00
2019-03-22T13:15:15.353Z,18.80
2019-03-22T13:17:43.947Z,19.00
2019-03-22T13:20:14.239Z,19.00
2019-03-22T13:22:42.858Z,19.10
2019-03-22T13:25:13.855Z,19.30
2019-03-22T13:27:42.533Z,19.30
2019-03-22T13:30:35.095Z,19.30
2019-03-22T13:33:03.938Z,19.30
2019-03-22T13:35:32.577Z,19.40
2019-03-22T13:38:01.194Z,19.30
2019-03-22T13:40:29.917Z,19.30
2019-03-22T13:42:58.475Z,19.30
2019-03-22T13:45:27.055Z,19.40
2019-03-22T13:47:55.683Z,19.00
2019-03-22T13:50:24.533Z,18.80
2019-03-22T13:52:53.175Z,18.80
2019-03-22T13:55:21.900Z,19.00
2019-03-22T13:57:50.694Z,19.10
2019-03-22T14:00:20.499Z,19.30
2019-03-22T14:02:49.071Z,19.30
2019-03-22T14:05:17.659Z,19.30
2019-03-22T14:07:46.202Z,19.30
2019-03-22T14:10:29.859Z,19.40
2019-03-22T14:13:00.723Z,19.20
2019-03-22T14:15:29.819Z,19.30
2019-03-22T14:17:58.948Z,19.40
2019-03-22T14:20:27.501Z,19.30
2019-03-22T14:22:56.074Z,19.30
2019-03-22T14:25:27.607Z,19.40
2019-03-22T14:27:56.259Z,19.40
2019-03-22T14:30:24.822Z,19.40
2019-03-22T14:32:53.774Z,19.50
2019-03-22T14:35:22.323Z,19.50
2019-03-22T14:37:50.898Z,19.50
2019-03-22T14:40:19.548Z,19.40
2019-03-22T14:42:48.290Z,19.30
2019-03-22T14:45:16.988Z,19.20
2019-03-22T14:47:45.572Z,19.10
2019-03-22T14:50:14.473Z,19.20
2019-03-22T14:52:43.137Z,19.20
2019-03-22T14:55:12.041Z,19.30
2019-03-22T14:57:49.101Z,19.30
2019-03-22T15:00:13.029Z,19.30
2019-03-22T15:02:41.627Z,19.20
2019-03-22T15:05:10.555Z,19.10
2019-03-22T15:07:39.185Z,18.90
2019-03-22T15:10:12.329Z,18.90
2019-03-22T15:12:40.888Z,18.90
2019-03-22T15:15:17.277Z,18.90
2019-03-22T15:17:50.370Z,18.90
2019-03-22T15:20:26.426Z,18.90
2019-03-22T15:23:02.300Z,18.90
2019-03-22T15:25:47.655Z,19.00
2019-03-22T15:28:34.232Z,19.00
2019-03-22T15:31:19.868Z,19.00
2019-03-22T15:36:22.949Z,18.90
2019-03-22T15:39:09.575Z,18.70
2019-03-22T15:41:38.335Z,18.60
2019-03-22T15:44:07.332Z,18.60
2019-03-22T15:46:36.161Z,18.40
2019-03-22T15:49:04.854Z,18.50
2019-03-22T15:51:33.452Z,18.30
2019-03-22T15:54:02.008Z,18.10
2019-03-22T15:56:31.066Z,17.60
2019-03-22T15:58:59.726Z,17.20
2019-03-22T16:01:28.250Z,16.90
2019-03-22T16:03:56.894Z,16.60
2019-03-22T16:06:25.457Z,16.40
2019-03-22T16:08:54.122Z,16.30
2019-03-22T16:11:22.688Z,16.10
2019-03-22T16:13:51.268Z,16.00
2019-03-22T16:16:19.826Z,15.90
2019-03-22T16:18:48.339Z,15.90
2019-03-22T16:21:16.901Z,15.70
2019-03-22T16:23:45.475Z,15.60
2019-03-22T16:26:14.207Z,15.50
2019-03-22T16:28:43.103Z,15.50
2019-03-22T16:31:11.674Z,15.40
2019-03-22T16:33:40.871Z,15.40
2019-03-22T16:36:09.458Z,15.30
2019-03-22T16:38:38.175Z,15.30
2019-03-22T16:41:07.017Z,15.30
2019-03-22T16:43:35.585Z,15.20
2019-03-22T16:46:04.311Z,15.10
2019-03-22T16:48:33.124Z,15.10
2019-03-22T16:51:01.696Z,15.00
2019-03-22T16:53:30.240Z,14.90
2019-03-22T16:55:58.899Z,14.80
2019-03-22T16:58:27.580Z,14.80
2019-03-22T17:00:56.282Z,14.80
2019-03-22T17:03:24.850Z,14.70
2019-03-22T17:05:53.408Z,14.60
2019-03-22T17:08:22.174Z,14.50
2019-03-22T17:10:50.872Z,14.50
2019-03-22T17:13:19.915Z,14.40
2019-03-22T17:15:48.835Z,14.30
2019-03-22T17:18:17.587Z,14.30
2019-03-22T17:20:46.144Z,14.20
2019-03-22T17:23:14.764Z,14.10
2019-03-22T17:25:43.323Z,14.00
2019-03-22T17:28:11.975Z,14.00
2019-03-22T17:30:40.535Z,13.90
2019-03-22T17:33:09.121Z,13.80
2019-03-22T17:35:37.704Z,13.70
2019-03-22T17:38:07.780Z,13.70
2019-03-22T17:40:36.323Z,13.60
2019-03-22T17:43:04.991Z,13.50
2019-03-22T17:45:33.854Z,13.50
2019-03-22T17:48:02.395Z,13.40
2019-03-22T17:50:31.110Z,13.40
2019-03-22T17:52:59.735Z,13.30
2019-03-22T17:55:28.392Z,13.20
2019-03-22T17:57:57.377Z,13.20
2019-03-22T18:00:28.089Z,13.10
2019-03-22T18:02:56.768Z,13.10
2019-03-22T18:05:25.419Z,13.00
2019-03-22T18:07:54.073Z,13.00
2019-03-22T18:10:22.819Z,12.90
2019-03-22T18:12:51.600Z,12.90
2019-03-22T18:15:20.347Z,12.90
2019-03-22T18:17:48.913Z,12.80
2019-03-22T18:20:17.750Z,12.80
2019-03-22T18:22:46.646Z,12.80
2019-03-22T18:25:15.876Z,12.80
2019-03-22T18:27:44.466Z,12.80
2019-03-22T18:30:14.772Z,12.70
2019-03-22T18:32:43.370Z,12.70
2019-03-22T18:35:12.466Z,12.60
2019-03-22T18:37:41.288Z,12.60
2019-03-22T18:40:15.337Z,12.50
2019-03-22T18:42:44.297Z,12.50
2019-03-22T18:45:13.716Z,12.50
2019-03-22T18:47:42.867Z,12.40
2019-03-22T18:50:12.610Z,12.40
2019-03-22T18:52:41.339Z,12.30
2019-03-22T18:55:10.938Z,12.20
2019-03-22T18:57:40.576Z,12.20
2019-03-22T19:00:14.907Z,12.10
2019-03-22T19:02:43.730Z,12.20
2019-03-22T19:05:13.095Z,12.20
2019-03-22T19:07:41.724Z,12.20
2019-03-22T19:10:12.214Z,12.20
2019-03-22T19:12:41.121Z,12.20
2019-03-22T19:15:11.622Z,12.20
2019-03-22T19:17:40.295Z,12.20
2019-03-22T19:20:11.455Z,12.10
2019-03-22T19:22:40.318Z,12.00
2019-03-22T19:25:10.487Z,11.90
2019-03-22T19:27:39.029Z,11.70
2019-03-22T19:30:12.797Z,11.60
2019-03-22T19:32:41.559Z,11.70
2019-03-22T19:35:11.770Z,11.70
2019-03-22T19:37:40.549Z,11.70
2019-03-22T19:40:11.845Z,11.70
2019-03-22T19:42:40.632Z,11.60
2019-03-22T19:45:11.266Z,11.50
2019-03-22T19:47:40.074Z,11.40
2019-03-22T19:50:13.737Z,11.20
2019-03-22T19:52:43.054Z,11.10
2019-03-22T19:55:12.235Z,11.00
2019-03-22T19:57:41.063Z,10.90
2019-03-22T20:00:19.961Z,10.80
2019-03-22T20:02:49.357Z,10.80
2019-03-22T20:05:32.427Z,10.80
2019-03-22T20:08:01.839Z,10.80
2019-03-22T20:10:30.469Z,10.70
2019-03-22T20:12:59.092Z,10.70
2019-03-22T20:15:27.677Z,10.90
2019-03-22T20:17:56.234Z,11.00
2019-03-22T20:20:24.835Z,11.10
2019-03-22T20:22:53.477Z,10.90
2019-03-22T20:25:22.100Z,10.60
2019-03-22T20:27:50.663Z,10.40
2019-03-22T20:30:19.578Z,10.20
2019-03-22T20:32:48.224Z,10.20
2019-03-22T20:35:17.187Z,10.30
2019-03-22T20:37:46.011Z,10.30
2019-03-22T20:40:18.015Z,10.30
2019-03-22T20:42:47.144Z,10.40
2019-03-22T20:45:23.568Z,10.30
2019-03-22T20:47:46.060Z,10.20
2019-03-22T20:50:14.793Z,10.20
2019-03-22T20:52:43.355Z,10.40
2019-03-22T20:55:11.941Z,10.40
2019-03-22T20:57:40.559Z,10.40
2019-03-22T21:00:14.283Z,10.40
2019-03-22T21:02:42.859Z,10.30
2019-03-22T21:05:11.837Z,10.10
2019-03-22T21:07:40.503Z,9.70
2019-03-22T21:10:10.206Z,9.60
2019-03-22T21:12:38.744Z,9.60
2019-03-22T21:15:10.131Z,9.60
2019-03-22T21:17:38.795Z,9.80
2019-03-22T21:20:11.531Z,9.80
2019-03-22T21:22:40.369Z,9.90
2019-03-22T21:25:10.077Z,9.90
2019-03-22T21:27:38.699Z,9.90
2019-03-22T21:30:09.275Z,10.00
2019-03-22T21:32:45.034Z,10.00
2019-03-22T21:35:08.519Z,10.00
2019-03-22T21:37:37.251Z,10.00
2019-03-22T21:40:09.807Z,9.90
2019-03-22T21:42:38.423Z,9.80
2019-03-22T21:45:07.915Z,9.60
2019-03-22T21:47:36.631Z,9.30
2019-03-22T21:50:07.191Z,9.00
2019-03-22T21:52:35.776Z,8.90
2019-03-22T21:55:05.767Z,9.00
2019-03-22T21:57:34.342Z,9.10
2019-03-22T22:00:03.282Z,9.20
2019-03-22T22:02:31.859Z,9.20
2019-03-22T22:05:00.415Z,9.00
2019-03-22T22:07:29.294Z,8.70
2019-03-22T22:09:57.864Z,8.40
2019-03-22T22:12:26.404Z,8.20
2019-03-22T22:14:55.172Z,8.20
2019-03-22T22:17:23.729Z,8.40
2019-03-22T22:19:52.301Z,8.40
2019-03-22T22:22:21.139Z,8.20
2019-03-22T22:24:49.819Z,8.00
2019-03-22T22:27:18.707Z,7.90
2019-03-22T22:29:47.596Z,7.70
2019-03-22T22:32:16.243Z,7.70
2019-03-22T22:34:44.800Z,7.70
2019-03-22T22:37:13.356Z,7.80
2019-03-22T22:39:41.946Z,7.90
2019-03-22T22:42:10.503Z,8.00
2019-03-22T22:44:39.053Z,8.10
2019-03-22T22:47:07.625Z,8.00
2019-03-22T22:49:36.170Z,8.00
2019-03-22T22:52:04.819Z,7.80
2019-03-22T22:54:33.368Z,7.60
2019-03-22T22:57:01.939Z,7.50
2019-03-22T22:59:30.495Z,7.50
2019-03-22T23:01:59.146Z,7.50
2019-03-22T23:04:27.699Z,7.50
2019-03-22T23:06:56.267Z,7.50
2019-03-22T23:09:24.891Z,7.60
2019-03-22T23:11:53.463Z,7.70
2019-03-22T23:14:22.351Z,7.60
2019-03-22T23:16:50.895Z,7.60
2019-03-22T23:19:19.535Z,7.60
2019-03-22T23:21:48.098Z,7.70
2019-03-22T23:24:16.727Z,7.80
2019-03-22T23:26:45.319Z,7.90
2019-03-22T23:29:13.912Z,8.00
2019-03-22T23:31:42.470Z,7.90
2019-03-22T23:34:11.038Z,7.90
2019-03-22T23:36:39.516Z,7.90
2019-03-22T23:39:08.369Z,7.90
2019-03-22T23:41:36.919Z,7.90
2019-03-22T23:44:05.903Z,7.90
2019-03-22T23:46:34.471Z,7.90
2019-03-22T23:49:03.015Z,8.00
2019-03-22T23:51:31.907Z,8.00
2019-03-22T23:54:00.518Z,8.10
2019-03-22T23:56:29.019Z,8.20
2019-03-22T23:58:57.831Z,8.20
